Notrees, Texas
Current Conditions -  °F | °C
As of 8:53 AM on Monday 22 Dec 2014 (Local Time) from KODO Reporting Station
Clear Clear  
Wind Chill: 53°   Ceiling: Unl
Heat Index: 53°   Visibility: 10mi
Dew Point: 29°   Wind: 9mph
Humidity: 40%   Direction: 290°WNW
Pressure: 29.76"   Gusts: NA
Location:  31.92°N, 102.76°W
Report Text: KODO 221453Z AUTO 29008KT 10SM CLR 12/M02 A2976 RMK AO2 SLP050 T01171017 51013
Loading
Personal Weather Stations






























Interactive Weather Map New forecast layout! Learn more

10-Day Weather Forecast

Advertisements
Track Severe Weather on mobile